TimeEDT,TemperatureF,Dew PointF,Humidity,Sea Level PressureIn,VisibilityMPH,Wind Direction,Wind SpeedMPH,Gust SpeedMPH,PrecipitationIn,Events,Conditions,WindDirDegrees,DateUTC
12:15 AM,64.4,63.5,97,30.14,10.0,Calm,Calm,-,N/A,,Overcast,0,2013-09-20 04:15:00
12:35 AM,63.9,63.5,99,30.14,10.0,Calm,Calm,-,N/A,,Overcast,0,2013-09-20 04:35:00
12:55 AM,64.4,63.5,97,30.14,10.0,SSW,3.5,-,N/A,,Mostly Cloudy,210,2013-09-20 04:55:00
1:15 AM,64.0,63.1,97,30.14,10.0,Calm,Calm,-,N/A,,Overcast,0,2013-09-20 05:15:00
1:35 AM,64.2,63.5,98,30.14,10.0,Calm,Calm,-,N/A,,Overcast,0,2013-09-20 05:35:00
1:55 AM,65.3,63.5,94,30.14,10.0,Calm,Calm,-,N/A,,Overcast,0,2013-09-20 05:55:00
2:15 AM,64.9,63.9,96,30.14,10.0,Calm,Calm,-,N/A,,Overcast,0,2013-09-20 06:15:00
2:35 AM,64.9,63.1,94,30.14,10.0,Calm,Calm,-,N/A,,Overcast,0,2013-09-20 06:35:00
2:55 AM,64.0,63.3,97,30.13,10.0,Calm,Calm,-,N/A,,Overcast,0,2013-09-20 06:55:00
3:15 AM,64.2,63.0,96,30.13,10.0,Calm,Calm,-,N/A,,Overcast,0,2013-09-20 07:15:00
3:35 AM,63.5,63.1,99,30.12,10.0,Calm,Calm,-,N/A,,Scattered Clouds,0,2013-09-20 07:35:00
3:55 AM,64.0,62.8,96,30.12,10.0,Calm,Calm,-,N/A,,Mostly Cloudy,0,2013-09-20 07:55:00
4:15 AM,63.7,63.0,97,30.12,10.0,Calm,Calm,-,N/A,,Mostly Cloudy,0,2013-09-20 08:15:00
4:35 AM,63.7,62.8,97,30.12,10.0,Calm,Calm,-,N/A,,Mostly Cloudy,0,2013-09-20 08:35:00
4:55 AM,63.5,63.1,99,30.12,10.0,Calm,Calm,-,N/A,,Scattered Clouds,0,2013-09-20 08:55:00
5:15 AM,62.8,62.6,99,30.12,10.0,Calm,Calm,-,N/A,,Clear,0,2013-09-20 09:15:00
5:35 AM,63.0,62.8,99,30.12,10.0,Calm,Calm,-,N/A,,Scattered Clouds,0,2013-09-20 09:35:00
5:55 AM,62.6,62.6,100,30.12,10.0,Calm,Calm,-,N/A,,Overcast,0,2013-09-20 09:55:00
6:15 AM,63.1,62.8,99,30.12,10.0,Calm,Calm,-,N/A,,Overcast,0,2013-09-20 10:15:00
6:35 AM,63.9,63.0,97,30.12,10.0,Calm,Calm,-,N/A,,Overcast,0,2013-09-20 10:35:00
6:55 AM,63.5,63.5,100,30.13,10.0,Calm,Calm,-,N/A,,Overcast,0,2013-09-20 10:55:00
7:15 AM,64.4,62.8,94,30.13,10.0,Calm,Calm,-,N/A,,Overcast,0,2013-09-20 11:15:00
7:35 AM,64.0,63.5,98,30.12,10.0,Calm,Calm,-,N/A,,Overcast,0,2013-09-20 11:35:00
7:55 AM,64.4,63.5,97,30.12,10.0,Calm,Calm,-,N/A,,Overcast,0,2013-09-20 11:55:00
8:15 AM,65.3,63.5,94,30.13,10.0,Calm,Calm,-,N/A,,Overcast,0,2013-09-20 12:15:00
8:35 AM,66.0,63.5,92,30.12,10.0,Calm,Calm,-,N/A,,Overcast,0,2013-09-20 12:35:00
8:55 AM,67.6,63.7,87,30.12,10.0,Calm,Calm,-,N/A,,Overcast,0,2013-09-20 12:55:00
9:15 AM,68.7,62.6,81,30.12,10.0,South,3.5,-,N/A,,Overcast,190,2013-09-20 13:15:00
9:35 AM,70.0,63.9,81,30.12,10.0,SSW,3.5,-,N/A,,Scattered Clouds,200,2013-09-20 13:35:00
9:55 AM,72.5,63.7,74,30.12,10.0,SW,4.6,-,N/A,,Clear,230,2013-09-20 13:55:00
10:15 AM,73.2,63.7,72,30.12,10.0,SSW,3.5,-,N/A,,Mostly Cloudy,200,2013-09-20 14:15:00
10:35 AM,74.7,64.4,70,30.12,10.0,SW,5.8,-,N/A,,Scattered Clouds,220,2013-09-20 14:35:00
10:55 AM,75.0,63.9,68,30.11,10.0,SSW,3.5,-,N/A,,Mostly Cloudy,210,2013-09-20 14:55:00
11:15 AM,75.7,64.0,67,30.10,10.0,Calm,Calm,-,N/A,,Mostly Cloudy,0,2013-09-20 15:15:00
11:35 AM,77.0,64.4,65,30.10,10.0,SW,5.8,-,N/A,,Overcast,230,2013-09-20 15:35:00
11:55 AM,77.9,65.3,65,30.09,10.0,Calm,Calm,-,N/A,,Scattered Clouds,0,2013-09-20 15:55:00
12:15 PM,78.6,65.7,64,30.08,10.0,SSW,4.6,-,N/A,,Clear,210,2013-09-20 16:15:00
12:35 PM,80.6,66.4,62,30.08,10.0,SW,4.6,-,N/A,,Scattered Clouds,220,2013-09-20 16:35:00
12:55 PM,80.6,66.4,62,30.07,10.0,Calm,Calm,-,N/A,,Mostly Cloudy,0,2013-09-20 16:55:00
1:15 PM,80.8,66.2,61,30.07,10.0,South,3.5,-,N/A,,Overcast,170,2013-09-20 17:15:00
1:35 PM,82.0,66.7,60,30.06,10.0,South,3.5,-,N/A,,Mostly Cloudy,170,2013-09-20 17:35:00
1:55 PM,83.1,66.7,58,30.05,10.0,South,3.5,-,N/A,,Mostly Cloudy,190,2013-09-20 17:55:00
2:15 PM,82.9,66.6,58,30.04,10.0,Calm,Calm,-,N/A,,Scattered Clouds,0,2013-09-20 18:15:00
2:35 PM,84.7,66.7,55,30.03,10.0,South,3.5,-,N/A,,Mostly Cloudy,180,2013-09-20 18:35:00
2:55 PM,82.4,66.7,59,30.03,10.0,East,4.6,-,N/A,,Overcast,80,2013-09-20 18:55:00
3:15 PM,81.5,67.5,62,30.02,10.0,ESE,4.6,-,N/A,,Overcast,120,2013-09-20 19:15:00
3:35 PM,81.5,67.3,62,30.02,10.0,SE,3.5,-,N/A,,Overcast,130,2013-09-20 19:35:00
3:55 PM,81.7,67.3,61,30.01,10.0,SE,3.5,-,N/A,,Mostly Cloudy,140,2013-09-20 19:55:00
4:15 PM,82.8,67.8,60,30.00,10.0,SSE,4.6,-,N/A,,Mostly Cloudy,150,2013-09-20 20:15:00
4:35 PM,82.9,66.2,57,30.00,10.0,SSE,4.6,-,N/A,,Mostly Cloudy,160,2013-09-20 20:35:00
4:55 PM,83.1,66.6,57,30.00,10.0,ESE,3.5,-,N/A,,Overcast,120,2013-09-20 20:55:00
5:15 PM,83.8,66.7,56,29.99,10.0,SE,4.6,-,N/A,,Overcast,140,2013-09-20 21:15:00
5:35 PM,83.3,67.3,58,29.99,10.0,ESE,5.8,-,N/A,,Mostly Cloudy,120,2013-09-20 21:35:00
5:55 PM,81.9,66.6,60,29.99,10.0,ESE,4.6,-,N/A,,Mostly Cloudy,120,2013-09-20 21:55:00
6:15 PM,80.8,67.5,64,29.99,10.0,SE,4.6,-,N/A,,Overcast,140,2013-09-20 22:15:00
6:35 PM,80.6,68.0,65,29.99,10.0,SE,5.8,-,N/A,,Overcast,130,2013-09-20 22:35:00
6:55 PM,78.8,68.2,70,30.00,10.0,ESE,3.5,-,N/A,,Mostly Cloudy,120,2013-09-20 22:55:00
7:15 PM,77.2,69.8,78,30.00,10.0,ESE,3.5,-,N/A,,Mostly Cloudy,110,2013-09-20 23:15:00
7:35 PM,76.1,70.2,82,30.00,10.0,East,3.5,-,N/A,,Mostly Cloudy,80,2013-09-20 23:35:00
7:55 PM,75.2,70.3,85,30.01,10.0,East,3.5,-,N/A,,Overcast,90,2013-09-20 23:55:00
8:15 PM,74.5,69.8,85,30.01,10.0,ENE,4.6,-,N/A,,Overcast,60,2013-09-21 00:15:00
8:35 PM,72.7,69.6,90,30.02,10.0,NE,9.2,-,N/A,,Overcast,50,2013-09-21 00:35:00
8:55 PM,72.5,69.1,89,30.02,10.0,ENE,6.9,-,N/A,,Overcast,70,2013-09-21 00:55:00
9:15 PM,71.6,68.9,91,30.02,10.0,ENE,5.8,-,N/A,,Overcast,60,2013-09-21 01:15:00
9:35 PM,70.7,68.5,93,30.02,10.0,East,5.8,-,N/A,,Mostly Cloudy,80,2013-09-21 01:35:00
9:55 PM,70.0,68.2,94,30.02,10.0,East,3.5,-,N/A,,Clear,90,2013-09-21 01:55:00
10:15 PM,69.6,68.0,95,30.01,10.0,East,4.6,-,N/A,,Scattered Clouds,100,2013-09-21 02:15:00
10:35 PM,69.4,68.0,95,30.00,10.0,East,5.8,-,N/A,,Scattered Clouds,100,2013-09-21 02:35:00
10:55 PM,68.9,67.5,95,30.01,10.0,Calm,Calm,-,N/A,,Clear,0,2013-09-21 02:55:00
11:15 PM,68.5,67.5,96,30.01,10.0,Calm,Calm,-,N/A,,Clear,0,2013-09-21 03:15:00
11:35 PM,68.4,67.3,96,30.01,10.0,Calm,Calm,-,N/A,,Clear,0,2013-09-21 03:35:00
11:55 PM,68.5,67.3,96,30.01,10.0,Calm,Calm,-,N/A,,Scattered Clouds,0,2013-09-21 03:55:00